createdAt,value
2022-07-30T00:00:42.232Z,21.02
2022-07-30T00:03:10.551Z,20.68
2022-07-30T00:05:38.991Z,20.00
2022-07-30T00:08:07.420Z,19.58
2022-07-30T00:10:35.846Z,19.99
2022-07-30T00:13:04.246Z,19.97
2022-07-30T00:15:32.561Z,20.41
2022-07-30T00:18:01.093Z,19.91
2022-07-30T00:20:29.828Z,19.43
2022-07-30T00:23:04.273Z,19.65
2022-07-30T00:25:32.739Z,20.07
2022-07-30T00:28:01.233Z,19.44
2022-07-30T00:30:29.724Z,18.98
2022-07-30T00:32:58.271Z,18.86
2022-07-30T00:35:27.632Z,19.32
2022-07-30T00:37:56.198Z,19.30
2022-07-30T00:40:24.645Z,19.39
2022-07-30T00:42:53.041Z,18.93
2022-07-30T00:45:21.406Z,18.80
2022-07-30T00:47:49.877Z,19.20
2022-07-30T00:50:18.319Z,19.46
2022-07-30T00:52:47.292Z,19.13
2022-07-30T00:55:16.483Z,19.24
2022-07-30T00:57:45.443Z,19.45
2022-07-30T01:00:16.375Z,19.04
2022-07-30T01:02:44.918Z,18.78
2022-07-30T01:05:13.799Z,19.30
2022-07-30T01:07:42.472Z,19.12
2022-07-30T01:10:13.326Z,19.15
2022-07-30T01:12:43.283Z,19.17
2022-07-30T01:15:11.995Z,17.93
2022-07-30T01:17:40.545Z,19.04
2022-07-30T01:20:12.160Z,18.82
2022-07-30T01:22:55.802Z,19.24
2022-07-30T01:25:43.025Z,19.24
2022-07-30T01:28:13.425Z,18.86
2022-07-30T01:30:46.891Z,18.74
2022-07-30T01:33:18.724Z,18.39
2022-07-30T01:35:48.056Z,18.42
2022-07-30T01:38:19.613Z,18.98
2022-07-30T01:40:48.604Z,18.13
2022-07-30T01:43:19.379Z,18.45
2022-07-30T01:45:48.742Z,18.79
2022-07-30T01:48:20.543Z,18.74
2022-07-30T01:50:51.407Z,18.15
2022-07-30T01:53:25.882Z,18.45
2022-07-30T01:55:55.643Z,18.73
2022-07-30T01:58:27.016Z,18.77
2022-07-30T02:00:58.561Z,18.46
2022-07-30T02:03:28.753Z,18.77
2022-07-30T02:06:06.505Z,18.89
2022-07-30T02:08:45.340Z,19.08
2022-07-30T02:11:16.369Z,19.06
2022-07-30T02:13:50.676Z,19.21
2022-07-30T02:16:22.790Z,18.22
2022-07-30T02:19:06.998Z,19.16
2022-07-30T02:21:40.193Z,18.97
2022-07-30T02:24:22.101Z,18.42
2022-07-30T02:26:52.422Z,19.16
2022-07-30T02:29:20.843Z,19.03
2022-07-30T02:31:49.394Z,18.52
2022-07-30T02:34:18.376Z,18.65
2022-07-30T02:36:47.798Z,18.82
2022-07-30T02:39:16.227Z,18.94
2022-07-30T02:41:49.354Z,17.59
2022-07-30T02:44:19.747Z,18.75
2022-07-30T02:46:49.851Z,18.93
2022-07-30T02:49:30.659Z,18.71
2022-07-30T02:52:00.312Z,18.46
2022-07-30T02:54:30.775Z,18.63
2022-07-30T02:57:00.878Z,17.95
2022-07-30T02:59:31.013Z,18.35
2022-07-30T03:01:59.676Z,18.14
2022-07-30T03:04:28.070Z,18.33
2022-07-30T03:06:56.538Z,18.63
2022-07-30T03:09:25.421Z,18.78
2022-07-30T03:11:53.870Z,18.40
2022-07-30T03:14:22.200Z,18.05
2022-07-30T03:16:56.325Z,18.59
2022-07-30T03:19:24.728Z,17.91
2022-07-30T03:21:53.103Z,17.89
2022-07-30T03:24:23.384Z,18.33
2022-07-30T03:26:53.780Z,18.65
2022-07-30T03:29:23.484Z,18.52
2022-07-30T03:31:52.123Z,18.00
2022-07-30T03:34:22.647Z,17.82
2022-07-30T03:36:53.250Z,18.42
2022-07-30T03:39:21.664Z,18.18
2022-07-30T03:41:51.057Z,18.25
2022-07-30T03:44:19.422Z,17.92
2022-07-30T03:46:48.032Z,18.14
2022-07-30T03:49:17.202Z,18.37
2022-07-30T03:51:49.498Z,18.43
2022-07-30T03:54:18.187Z,18.68
2022-07-30T03:57:09.448Z,18.59
2022-07-30T03:59:43.428Z,18.76
2022-07-30T04:02:12.200Z,18.72
2022-07-30T04:05:07.206Z,18.71
2022-07-30T04:07:35.786Z,18.97
2022-07-30T04:10:14.654Z,18.99
2022-07-30T04:13:00.918Z,19.11
2022-07-30T04:16:37.538Z,19.12
2022-07-30T04:18:22.922Z,19.04
2022-07-30T04:20:51.186Z,19.52
2022-07-30T04:23:19.957Z,19.69
2022-07-30T04:25:48.715Z,19.86
2022-07-30T04:28:17.378Z,20.05
2022-07-30T04:30:46.393Z,20.27
2022-07-30T04:33:15.655Z,20.43
2022-07-30T04:36:07.819Z,20.43
2022-07-30T04:38:39.056Z,20.62
2022-07-30T04:41:07.990Z,20.89
2022-07-30T04:43:59.570Z,20.88
2022-07-30T04:46:29.925Z,21.09
2022-07-30T04:48:58.918Z,21.17
2022-07-30T04:51:34.506Z,20.93
2022-07-30T04:54:03.364Z,21.22
2022-07-30T04:56:31.894Z,21.25
2022-07-30T04:59:00.424Z,21.52
2022-07-30T05:01:34.092Z,21.65
2022-07-30T05:04:09.498Z,21.68
2022-07-30T05:06:40.710Z,21.23
2022-07-30T05:09:12.315Z,21.12
2022-07-30T05:11:40.779Z,21.14
2022-07-30T05:14:09.198Z,21.31
2022-07-30T05:16:37.630Z,22.14
2022-07-30T05:19:07.436Z,21.77
2022-07-30T05:21:37.745Z,21.62
2022-07-30T05:24:06.577Z,21.65
2022-07-30T05:26:40.780Z,22.40
2022-07-30T05:29:19.332Z,22.73
2022-07-30T05:31:52.664Z,23.02
2022-07-30T05:34:22.839Z,22.91
2022-07-30T05:36:53.120Z,22.96
2022-07-30T05:39:22.328Z,23.21
2022-07-30T05:41:55.285Z,23.49
2022-07-30T05:44:28.182Z,23.42
2022-07-30T05:46:56.832Z,23.91
2022-07-30T05:49:25.689Z,23.41
2022-07-30T05:51:58.107Z,23.87
2022-07-30T05:54:27.770Z,23.94
2022-07-30T05:57:15.304Z,23.73
2022-07-30T05:59:44.470Z,24.20
2022-07-30T06:02:31.454Z,24.49
2022-07-30T06:05:23.052Z,23.99
2022-07-30T06:07:51.650Z,24.32
2022-07-30T06:10:23.234Z,24.50
2022-07-30T06:12:51.704Z,24.26
2022-07-30T06:15:26.188Z,24.42
2022-07-30T06:17:58.287Z,25.16
2022-07-30T06:20:43.865Z,25.63
2022-07-30T06:23:19.393Z,25.83
2022-07-30T06:26:05.770Z,26.07
2022-07-30T06:28:38.151Z,25.60
2022-07-30T06:31:15.379Z,26.19
2022-07-30T06:33:44.459Z,26.25
2022-07-30T06:36:14.142Z,26.46
2022-07-30T06:39:11.207Z,26.48
2022-07-30T06:41:54.696Z,26.19
2022-07-30T06:44:23.300Z,25.70
2022-07-30T06:47:10.526Z,26.65
2022-07-30T06:49:40.556Z,26.82
2022-07-30T06:52:14.512Z,26.53
2022-07-30T06:54:48.928Z,26.84
2022-07-30T06:57:24.270Z,26.58
2022-07-30T06:59:56.287Z,27.20
2022-07-30T07:02:34.563Z,26.66
2022-07-30T07:05:14.619Z,26.85
2022-07-30T07:08:03.064Z,27.31
2022-07-30T07:10:37.398Z,27.73
2022-07-30T07:13:16.160Z,27.40
2022-07-30T07:15:45.145Z,27.58
2022-07-30T07:18:20.406Z,27.60
2022-07-30T07:20:54.135Z,27.88
2022-07-30T07:23:22.676Z,27.78
2022-07-30T07:25:54.666Z,27.84
2022-07-30T07:28:23.065Z,28.27
2022-07-30T07:31:02.057Z,28.76
2022-07-30T07:33:31.676Z,28.44
2022-07-30T07:36:00.180Z,28.85
2022-07-30T07:38:33.120Z,28.56
2022-07-30T07:41:01.727Z,28.76
2022-07-30T07:43:30.917Z,29.25
2022-07-30T07:46:01.276Z,29.04
2022-07-30T07:48:35.365Z,29.27
2022-07-30T07:51:46.750Z,29.12
2022-07-30T07:54:22.472Z,29.56
2022-07-30T07:56:56.938Z,29.74
2022-07-30T07:59:39.961Z,29.98
2022-07-30T08:02:26.144Z,29.99
2022-07-30T08:05:06.366Z,29.85
2022-07-30T08:07:37.552Z,29.70
2022-07-30T08:10:06.456Z,29.66
2022-07-30T08:12:58.424Z,29.48
2022-07-30T08:15:53.236Z,30.29
2022-07-30T08:18:40.264Z,30.64
2022-07-30T08:21:19.580Z,30.34
2022-07-30T08:23:48.432Z,30.55
2022-07-30T08:26:17.628Z,30.72
2022-07-30T08:28:46.237Z,30.95
2022-07-30T08:31:14.934Z,30.60
2022-07-30T08:33:43.920Z,30.92
2022-07-30T08:36:12.583Z,30.55
2022-07-30T08:38:41.084Z,30.68
2022-07-30T08:41:10.500Z,30.84
2022-07-30T08:43:39.839Z,31.27
2022-07-30T08:46:10.449Z,31.59
2022-07-30T08:48:56.118Z,31.28
2022-07-30T08:51:25.734Z,31.38
2022-07-30T08:54:12.775Z,31.21
2022-07-30T08:56:42.745Z,31.52
2022-07-30T08:59:11.863Z,31.39
2022-07-30T09:01:48.110Z,31.54
2022-07-30T09:04:18.385Z,31.86
2022-07-30T09:06:50.251Z,31.34
2022-07-30T09:09:18.707Z,31.28
2022-07-30T09:11:47.125Z,30.93
2022-07-30T09:14:19.213Z,31.74
2022-07-30T09:16:48.355Z,31.97
2022-07-30T09:19:18.831Z,31.96
2022-07-30T09:22:02.294Z,32.38
2022-07-30T09:24:47.514Z,32.34
2022-07-30T09:27:49.410Z,32.31
2022-07-30T09:30:48.577Z,32.46
2022-07-30T09:33:40.454Z,32.27
2022-07-30T09:36:20.822Z,32.06
2022-07-30T09:39:14.824Z,32.61
2022-07-30T09:42:19.600Z,32.87
2022-07-30T09:44:48.236Z,32.46
2022-07-30T09:47:38.701Z,32.02
2022-07-30T09:50:29.421Z,32.35
2022-07-30T09:53:12.131Z,32.91
2022-07-30T09:55:43.255Z,33.07
2022-07-30T09:58:26.442Z,33.11
2022-07-30T10:00:59.908Z,33.54
2022-07-30T10:03:53.336Z,33.27
2022-07-30T10:06:50.882Z,32.95
2022-07-30T10:09:37.233Z,33.55
2022-07-30T10:12:11.921Z,33.75
2022-07-30T10:14:46.498Z,33.71
2022-07-30T10:17:20.026Z,33.43
2022-07-30T10:20:15.109Z,33.44
2022-07-30T10:24:46.610Z,33.97
2022-07-30T10:26:17.332Z,33.58
2022-07-30T10:29:22.094Z,33.59
2022-07-30T10:32:03.963Z,33.69
2022-07-30T10:34:36.823Z,34.18
2022-07-30T10:37:12.336Z,34.20
2022-07-30T10:39:47.164Z,33.95
2022-07-30T10:42:30.437Z,34.00
2022-07-30T10:45:17.689Z,32.90
2022-07-30T10:47:48.798Z,33.65
2022-07-30T10:50:33.962Z,34.19
2022-07-30T10:53:06.102Z,34.38
2022-07-30T10:55:39.222Z,34.53
2022-07-30T10:58:14.473Z,34.18
2022-07-30T11:01:04.043Z,34.03
2022-07-30T11:03:41.465Z,33.85
2022-07-30T11:06:24.418Z,34.04
2022-07-30T11:08:58.549Z,33.69
2022-07-30T11:12:01.821Z,33.00
2022-07-30T11:14:20.703Z,33.79
2022-07-30T11:16:52.734Z,34.16
2022-07-30T11:19:53.250Z,33.89
2022-07-30T11:22:29.705Z,34.28
2022-07-30T11:24:59.030Z,34.23
2022-07-30T11:27:46.916Z,33.98
2022-07-30T11:30:23.716Z,33.53
2022-07-30T11:33:15.846Z,32.83
2022-07-30T11:35:45.124Z,33.80
2022-07-30T11:38:19.605Z,34.47
2022-07-30T11:40:50.923Z,34.03
2022-07-30T11:43:35.627Z,34.12
2022-07-30T11:46:10.158Z,34.78
2022-07-30T11:48:41.059Z,34.63
2022-07-30T11:51:10.540Z,34.86
2022-07-30T11:53:40.310Z,34.66
2022-07-30T11:56:13.863Z,35.08
2022-07-30T11:58:45.073Z,35.12
2022-07-30T12:01:15.024Z,35.19
2022-07-30T12:03:44.886Z,35.18
2022-07-30T12:06:26.138Z,33.95
2022-07-30T12:08:58.516Z,34.05
2022-07-30T12:11:38.310Z,34.04
2022-07-30T12:14:26.992Z,33.53
2022-07-30T12:17:01.478Z,33.81
2022-07-30T12:19:31.514Z,33.97
2022-07-30T12:22:17.663Z,33.98
2022-07-30T12:24:47.815Z,33.78
2022-07-30T12:27:16.369Z,33.89
2022-07-30T12:29:44.954Z,33.17
2022-07-30T12:32:15.251Z,33.22
2022-07-30T12:34:50.769Z,33.07
2022-07-30T12:37:19.428Z,32.99
2022-07-30T12:39:49.586Z,31.82
2022-07-30T12:42:21.244Z,32.33
2022-07-30T12:44:52.226Z,32.84
2022-07-30T12:47:29.304Z,32.87
2022-07-30T12:50:01.384Z,32.91
2022-07-30T12:52:34.682Z,32.65
2022-07-30T12:55:04.911Z,31.59
2022-07-30T12:58:01.798Z,32.61
2022-07-30T13:00:36.361Z,33.12
2022-07-30T13:03:27.451Z,33.10
2022-07-30T13:05:56.975Z,32.50
2022-07-30T13:08:50.296Z,32.46
2022-07-30T13:11:20.831Z,32.84
2022-07-30T13:13:49.471Z,32.54
2022-07-30T13:16:21.781Z,32.73
2022-07-30T13:18:53.287Z,32.57
2022-07-30T13:21:21.815Z,32.59
2022-07-30T13:23:50.370Z,32.53
2022-07-30T13:26:18.779Z,30.95
2022-07-30T13:28:48.100Z,31.28
2022-07-30T13:31:17.121Z,31.92
2022-07-30T13:33:45.715Z,32.05
2022-07-30T13:36:14.155Z,31.95
2022-07-30T13:38:44.373Z,32.09
2022-07-30T13:41:12.773Z,31.73
2022-07-30T13:43:41.103Z,31.16
2022-07-30T13:46:09.542Z,30.62
2022-07-30T13:48:39.236Z,31.09
2022-07-30T13:51:09.136Z,31.46
2022-07-30T13:53:37.937Z,30.85
2022-07-30T13:56:12.489Z,31.10
2022-07-30T13:58:41.595Z,30.56
2022-07-30T14:01:17.820Z,30.10
2022-07-30T14:03:50.773Z,29.95
2022-07-30T14:06:19.963Z,30.15
2022-07-30T14:08:48.802Z,29.89
2022-07-30T14:11:19.025Z,29.46
2022-07-30T14:13:49.634Z,30.14
2022-07-30T14:16:43.761Z,30.75
2022-07-30T14:19:08.619Z,31.14
2022-07-30T14:21:54.171Z,30.99
2022-07-30T14:24:23.459Z,31.20
2022-07-30T14:26:57.794Z,30.59
2022-07-30T14:29:29.529Z,30.82
2022-07-30T14:31:58.069Z,31.04
2022-07-30T14:34:28.516Z,30.29
2022-07-30T14:36:58.633Z,29.70
2022-07-30T14:39:27.420Z,29.55
2022-07-30T14:41:56.757Z,29.56
2022-07-30T14:44:25.583Z,30.20
2022-07-30T14:46:54.289Z,29.91
2022-07-30T14:49:24.136Z,30.07
2022-07-30T14:51:54.705Z,30.14
2022-07-30T14:54:23.235Z,29.90
2022-07-30T14:56:56.167Z,29.71
2022-07-30T14:59:27.887Z,30.11
2022-07-30T15:01:58.158Z,29.22
2022-07-30T15:04:27.735Z,29.29
2022-07-30T15:06:56.127Z,29.80
2022-07-30T15:09:24.898Z,28.99
2022-07-30T15:12:09.958Z,29.42
2022-07-30T15:14:40.076Z,28.98
2022-07-30T15:17:08.980Z,28.50
2022-07-30T15:19:49.966Z,28.80
2022-07-30T15:22:20.268Z,29.02
2022-07-30T15:24:49.165Z,28.13
2022-07-30T15:27:31.816Z,27.82
2022-07-30T15:30:02.837Z,28.09
2022-07-30T15:32:31.505Z,28.30
2022-07-30T15:34:59.953Z,28.30
2022-07-30T15:37:29.333Z,27.89
2022-07-30T15:39:58.985Z,28.91
2022-07-30T15:42:27.654Z,28.54
2022-07-30T15:45:15.911Z,28.43
2022-07-30T15:47:46.548Z,28.43
2022-07-30T15:50:15.748Z,27.53
2022-07-30T15:52:44.785Z,28.27
2022-07-30T15:55:13.244Z,28.52
2022-07-30T15:57:43.632Z,28.81
2022-07-30T16:00:12.893Z,28.87
2022-07-30T16:02:43.801Z,29.14
2022-07-30T16:05:14.155Z,28.90
2022-07-30T16:07:43.853Z,28.98
2022-07-30T16:10:12.388Z,29.28
2022-07-30T16:12:42.259Z,29.35
2022-07-30T16:15:10.983Z,29.42
2022-07-30T16:17:39.360Z,28.90
2022-07-30T16:20:08.471Z,28.55
2022-07-30T16:22:36.872Z,28.88
2022-07-30T16:25:05.856Z,29.13
2022-07-30T16:27:34.524Z,29.10
2022-07-30T16:30:04.223Z,29.33
2022-07-30T16:32:32.609Z,29.26
2022-07-30T16:35:02.415Z,29.10
2022-07-30T16:37:30.909Z,28.98
2022-07-30T16:39:59.336Z,28.91
2022-07-30T16:42:29.215Z,28.85
2022-07-30T16:44:57.873Z,28.76
2022-07-30T16:47:26.371Z,28.75
2022-07-30T16:49:54.807Z,28.59
2022-07-30T16:52:26.770Z,28.48
2022-07-30T16:54:56.192Z,28.29
2022-07-30T16:57:24.740Z,28.16
2022-07-30T16:59:53.300Z,27.60
2022-07-30T17:02:22.309Z,27.36
2022-07-30T17:04:50.804Z,27.61
2022-07-30T17:07:19.418Z,27.68
2022-07-30T17:09:51.873Z,27.43
2022-07-30T17:12:25.348Z,27.48
2022-07-30T17:14:56.124Z,27.37
2022-07-30T17:17:31.670Z,26.50
2022-07-30T17:20:04.573Z,27.21
2022-07-30T17:22:34.197Z,26.78
2022-07-30T17:25:03.567Z,26.30
2022-07-30T17:27:34.515Z,25.86
2022-07-30T17:30:03.154Z,26.02
2022-07-30T17:32:32.713Z,26.87
2022-07-30T17:35:05.371Z,26.31
2022-07-30T17:37:35.028Z,26.44
2022-07-30T17:40:28.341Z,25.83
2022-07-30T17:42:53.386Z,26.35
2022-07-30T17:45:25.187Z,26.50
2022-07-30T17:47:54.964Z,26.58
2022-07-30T17:50:23.669Z,26.30
2022-07-30T17:52:52.624Z,26.38
2022-07-30T17:55:21.420Z,26.80
2022-07-30T17:57:51.350Z,26.46
2022-07-30T18:00:20.158Z,26.79
2022-07-30T18:02:48.765Z,26.70
2022-07-30T18:05:26.074Z,26.57
2022-07-30T18:07:54.615Z,26.53
2022-07-30T18:10:23.343Z,26.69
2022-07-30T18:12:52.022Z,26.15
2022-07-30T18:15:20.773Z,26.04
2022-07-30T18:17:49.662Z,24.64
2022-07-30T18:20:19.244Z,24.85
2022-07-30T18:22:51.622Z,25.23
2022-07-30T18:25:23.169Z,24.45
2022-07-30T18:27:53.882Z,24.37
2022-07-30T18:30:23.312Z,24.08
2022-07-30T18:32:59.311Z,24.04
2022-07-30T18:35:31.337Z,24.41
2022-07-30T18:38:00.483Z,23.31
2022-07-30T18:40:39.384Z,23.27
2022-07-30T18:43:09.161Z,23.14
2022-07-30T18:45:38.370Z,23.82
2022-07-30T18:48:07.513Z,23.38
2022-07-30T18:50:39.378Z,23.64
2022-07-30T18:53:15.457Z,23.93
2022-07-30T18:55:58.264Z,24.46
2022-07-30T18:58:34.851Z,23.80
2022-07-30T19:01:12.521Z,24.08
2022-07-30T19:03:43.490Z,24.75
2022-07-30T19:06:16.534Z,24.75
2022-07-30T19:08:46.761Z,23.85
2022-07-30T19:11:16.622Z,23.61
2022-07-30T19:13:45.634Z,23.67
2022-07-30T19:16:18.838Z,23.29
2022-07-30T19:18:51.733Z,23.08
2022-07-30T19:21:23.688Z,22.57
2022-07-30T19:24:17.951Z,22.28
2022-07-30T19:26:52.250Z,22.06
2022-07-30T19:29:22.863Z,22.17
2022-07-30T19:31:55.308Z,22.56
2022-07-30T19:34:26.052Z,22.07
2022-07-30T19:36:56.307Z,21.90
2022-07-30T19:39:35.003Z,21.70
2022-07-30T19:42:10.534Z,21.26
2022-07-30T19:44:44.751Z,21.59
2022-07-30T19:50:00.595Z,21.43
2022-07-30T19:52:53.116Z,21.43
2022-07-30T19:55:49.557Z,20.94
2022-07-30T19:58:24.985Z,21.42
2022-07-30T20:01:08.561Z,20.71
2022-07-30T20:03:57.010Z,20.73
2022-07-30T20:06:34.200Z,20.69
2022-07-30T20:09:15.165Z,21.09
2022-07-30T20:14:37.568Z,21.33
2022-07-30T20:17:20.904Z,20.97
2022-07-30T20:19:54.256Z,21.58
2022-07-30T20:22:35.677Z,21.20
2022-07-30T20:25:08.769Z,21.42
2022-07-30T20:27:38.986Z,21.51
2022-07-30T20:30:09.655Z,21.59
2022-07-30T20:32:42.335Z,21.69
2022-07-30T20:35:15.086Z,21.52
2022-07-30T20:37:54.951Z,20.65
2022-07-30T20:43:15.466Z,20.35
2022-07-30T20:45:44.063Z,19.77
2022-07-30T20:48:17.370Z,19.90
2022-07-30T20:50:55.162Z,19.29
2022-07-30T20:53:23.834Z,18.85
2022-07-30T20:56:04.350Z,18.73
2022-07-30T20:58:33.624Z,18.60
2022-07-30T21:01:04.857Z,18.88
2022-07-30T21:03:33.442Z,18.20
2022-07-30T21:06:02.026Z,18.99
2022-07-30T21:08:31.178Z,19.15
2022-07-30T21:11:00.181Z,18.39
2022-07-30T21:13:29.000Z,18.37
2022-07-30T21:16:02.949Z,17.99
2022-07-30T21:18:32.992Z,17.47
2022-07-30T21:21:05.434Z,17.52
2022-07-30T21:23:38.179Z,17.11
2022-07-30T21:26:13.445Z,17.38
2022-07-30T21:28:42.331Z,17.37
2022-07-30T21:31:10.979Z,17.17
2022-07-30T21:33:39.605Z,17.62
2022-07-30T21:36:10.639Z,17.51
2022-07-30T21:38:42.727Z,17.60
2022-07-30T21:41:14.024Z,17.81
2022-07-30T21:43:44.749Z,18.28
2022-07-30T21:46:13.828Z,18.22
2022-07-30T21:48:43.780Z,18.12
2022-07-30T21:51:13.946Z,18.59
2022-07-30T21:53:45.974Z,19.07
2022-07-30T21:56:15.989Z,18.81
2022-07-30T21:58:45.005Z,18.81
2022-07-30T22:01:17.585Z,19.30
2022-07-30T22:04:04.250Z,19.01
2022-07-30T22:06:37.689Z,19.01
2022-07-30T22:09:18.930Z,19.10
2022-07-30T22:11:56.800Z,19.06
2022-07-30T22:14:29.695Z,19.68
2022-07-30T22:16:59.864Z,19.73
2022-07-30T22:19:28.675Z,19.73
2022-07-30T22:21:57.128Z,19.55
2022-07-30T22:27:14.538Z,19.62
2022-07-30T22:29:43.619Z,19.83
2022-07-30T22:32:12.833Z,19.69
2022-07-30T22:34:41.342Z,19.60
2022-07-30T22:37:13.211Z,19.36
2022-07-30T22:39:52.022Z,19.46
2022-07-30T22:42:24.439Z,19.23
2022-07-30T22:44:55.417Z,19.37
2022-07-30T22:47:51.200Z,19.54
2022-07-30T22:50:12.703Z,18.99
2022-07-30T22:52:44.119Z,18.72
2022-07-30T22:55:22.185Z,18.98
2022-07-30T22:57:50.837Z,19.06
2022-07-30T23:00:27.416Z,19.30
2022-07-30T23:02:57.004Z,19.53
2022-07-30T23:05:25.499Z,19.57
2022-07-30T23:07:54.840Z,19.44
2022-07-30T23:10:25.673Z,19.39
2022-07-30T23:12:19.298Z,20.97
2022-07-30T23:12:28.648Z,19.56
2022-07-30T23:12:56.341Z,19.07
2022-07-30T23:15:24.988Z,19.12
2022-07-30T23:17:53.391Z,19.41
2022-07-30T23:20:22.083Z,19.77
2022-07-30T23:22:50.462Z,19.57
2022-07-30T23:25:18.938Z,19.63
2022-07-30T23:27:47.723Z,19.67
2022-07-30T23:30:16.106Z,19.82
2022-07-30T23:32:44.504Z,19.72
2022-07-30T23:35:13.036Z,19.57
2022-07-30T23:37:49.195Z,19.49
2022-07-30T23:40:18.919Z,19.70
2022-07-30T23:42:48.049Z,19.52
2022-07-30T23:45:16.599Z,19.40
2022-07-30T23:48:01.900Z,19.58
2022-07-30T23:50:32.284Z,19.52
2022-07-30T23:53:01.304Z,19.37
2022-07-30T23:55:30.290Z,18.63
2022-07-30T23:58:00.575Z,18.33
